createdAt,value
2019-03-27T00:01:52.191Z,19.37
2019-03-27T00:04:23.180Z,28.57
2019-03-27T00:06:54.145Z,17.50
2019-03-27T00:09:28.150Z,28.83
2019-03-27T00:11:59.785Z,21.77
2019-03-27T00:14:33.146Z,17.80
2019-03-27T00:17:06.900Z,18.43
2019-03-27T00:19:37.851Z,26.97
2019-03-27T00:22:08.844Z,17.33
2019-03-27T00:24:39.800Z,17.47
2019-03-27T00:27:10.644Z,19.87
2019-03-27T00:29:41.477Z,24.90
2019-03-27T00:32:12.393Z,20.00
2019-03-27T00:34:43.303Z,21.73
2019-03-27T00:37:14.271Z,18.33
2019-03-27T00:39:45.145Z,17.97
2019-03-27T00:42:16.101Z,19.30
2019-03-27T00:44:47.129Z,23.97
2019-03-27T00:47:18.064Z,17.73
2019-03-27T00:49:49.959Z,16.77
2019-03-27T00:52:20.840Z,20.93
2019-03-27T00:54:51.768Z,24.87
2019-03-27T00:57:22.740Z,19.10
2019-03-27T00:59:53.712Z,19.40
2019-03-27T01:02:24.756Z,28.87
2019-03-27T01:04:55.660Z,22.33
2019-03-27T01:07:29.263Z,34.43
2019-03-27T01:10:01.410Z,23.40
2019-03-27T01:12:32.502Z,22.80
2019-03-27T01:15:03.523Z,22.50
2019-03-27T01:17:34.623Z,18.43
2019-03-27T01:20:05.973Z,21.73
2019-03-27T01:22:36.979Z,26.63
2019-03-27T01:25:08.027Z,21.97
2019-03-27T01:27:42.924Z,29.47
2019-03-27T01:30:13.491Z,22.93
2019-03-27T01:32:44.382Z,19.03
2019-03-27T01:35:17.366Z,25.03
2019-03-27T01:37:48.000Z,26.27
2019-03-27T01:40:23.656Z,18.33
2019-03-27T01:42:54.568Z,14.27
2019-03-27T01:45:26.555Z,25.20
2019-03-27T01:47:57.388Z,22.33
2019-03-27T01:50:28.277Z,23.50
2019-03-27T01:52:59.142Z,21.17
2019-03-27T01:55:30.095Z,21.07
2019-03-27T01:58:00.990Z,29.87
2019-03-27T02:00:31.827Z,13.83
2019-03-27T02:03:02.728Z,25.37
2019-03-27T02:05:33.657Z,27.03
2019-03-27T02:08:04.533Z,25.43
2019-03-27T02:10:35.662Z,25.43
2019-03-27T02:13:06.555Z,18.77
2019-03-27T02:15:37.456Z,22.27
2019-03-27T02:18:08.616Z,27.37
2019-03-27T02:20:39.844Z,27.47
2019-03-27T02:23:10.756Z,25.63
2019-03-27T02:25:41.984Z,29.60
2019-03-27T02:28:12.804Z,27.03
2019-03-27T02:30:43.641Z,21.93
2019-03-27T02:33:14.553Z,24.20
2019-03-27T02:35:45.515Z,23.73
2019-03-27T02:38:16.415Z,30.50
2019-03-27T02:40:47.359Z,23.20
2019-03-27T02:43:18.282Z,24.80
2019-03-27T02:45:49.262Z,19.83
2019-03-27T02:48:20.136Z,19.83
2019-03-27T02:50:50.990Z,18.10
2019-03-27T02:53:21.876Z,21.23
2019-03-27T02:55:52.762Z,22.03
2019-03-27T02:58:23.710Z,21.80
2019-03-27T03:00:54.747Z,23.93
2019-03-27T03:03:27.573Z,20.93
2019-03-27T03:05:58.419Z,35.33
2019-03-27T03:08:29.453Z,29.27
2019-03-27T03:11:00.408Z,26.00
2019-03-27T03:13:31.289Z,20.20
2019-03-27T03:16:03.808Z,22.93
2019-03-27T03:18:34.746Z,31.93
2019-03-27T03:21:05.721Z,24.17
2019-03-27T03:23:36.537Z,28.90
2019-03-27T03:26:07.558Z,26.03
2019-03-27T03:28:38.500Z,28.53
2019-03-27T03:31:11.080Z,24.47
2019-03-27T03:33:42.076Z,24.77
2019-03-27T03:36:12.944Z,30.63
2019-03-27T03:38:43.862Z,23.60
2019-03-27T03:41:17.226Z,26.90
2019-03-27T03:43:48.172Z,24.70
2019-03-27T03:46:19.117Z,24.47
2019-03-27T03:48:50.011Z,22.53
2019-03-27T03:51:22.476Z,23.90
2019-03-27T03:53:53.284Z,25.10
2019-03-27T03:56:25.178Z,21.03
2019-03-27T03:58:56.388Z,27.67
2019-03-27T04:01:28.843Z,20.13
2019-03-27T04:04:00.180Z,30.20
2019-03-27T04:06:31.012Z,26.57
2019-03-27T04:09:01.937Z,36.57
2019-03-27T04:11:32.823Z,28.73
2019-03-27T04:14:03.704Z,27.63
2019-03-27T04:16:34.733Z,24.10
2019-03-27T04:19:05.636Z,20.40
2019-03-27T04:21:36.578Z,21.30
2019-03-27T04:24:07.519Z,36.67
2019-03-27T04:26:40.239Z,31.57
2019-03-27T04:29:11.221Z,28.27
2019-03-27T04:31:42.178Z,29.07
2019-03-27T04:34:13.112Z,25.40
2019-03-27T04:36:48.311Z,26.23
2019-03-27T04:39:21.411Z,28.60
2019-03-27T04:41:54.971Z,23.63
2019-03-27T04:44:25.917Z,26.97
2019-03-27T04:46:59.146Z,24.80
2019-03-27T04:49:29.951Z,28.67
2019-03-27T04:52:00.757Z,32.93
2019-03-27T04:54:31.692Z,28.87
2019-03-27T04:57:02.545Z,31.50
2019-03-27T04:59:33.426Z,31.73
2019-03-27T05:02:06.595Z,31.97
2019-03-27T05:04:37.219Z,26.83
2019-03-27T05:07:08.349Z,29.10
2019-03-27T05:09:39.207Z,22.60
2019-03-27T05:12:10.077Z,23.13
2019-03-27T05:14:41.593Z,34.80
2019-03-27T05:17:12.395Z,32.13
2019-03-27T05:19:46.280Z,34.77
2019-03-27T05:22:17.059Z,26.70
2019-03-27T05:24:47.868Z,38.57
2019-03-27T05:27:18.776Z,25.93
2019-03-27T05:29:49.644Z,28.47
2019-03-27T05:32:20.772Z,30.87
2019-03-27T05:34:51.849Z,29.83
2019-03-27T05:37:22.909Z,38.73
2019-03-27T05:39:53.951Z,29.73
2019-03-27T05:42:24.864Z,32.60
2019-03-27T05:44:55.764Z,29.90
2019-03-27T05:47:26.650Z,42.73
2019-03-27T05:49:57.499Z,29.40
2019-03-27T05:52:28.613Z,36.23
2019-03-27T05:54:59.527Z,34.33
2019-03-27T05:57:31.999Z,38.47
2019-03-27T06:00:08.752Z,40.40
2019-03-27T06:02:49.566Z,31.33
2019-03-27T06:05:35.022Z,37.70
2019-03-27T06:08:07.815Z,34.87
2019-03-27T06:10:38.759Z,31.73
2019-03-27T06:13:09.791Z,34.47
2019-03-27T06:15:45.128Z,42.90
2019-03-27T06:18:16.141Z,37.67
2019-03-27T06:20:47.304Z,36.10
2019-03-27T06:23:18.240Z,37.10
2019-03-27T06:25:49.279Z,32.50
2019-03-27T06:28:20.294Z,43.23
2019-03-27T06:30:51.238Z,41.63
2019-03-27T06:33:22.188Z,32.40
2019-03-27T06:35:53.162Z,36.30
2019-03-27T06:38:24.243Z,39.47
2019-03-27T06:40:55.523Z,35.37
2019-03-27T06:43:29.755Z,35.23
2019-03-27T06:46:00.832Z,39.80
2019-03-27T06:48:33.192Z,32.43
2019-03-27T06:51:04.472Z,32.77
2019-03-27T06:53:35.348Z,31.87
2019-03-27T06:56:06.176Z,35.67
2019-03-27T06:58:38.913Z,29.57
2019-03-27T07:01:10.049Z,38.77
2019-03-27T07:03:40.945Z,29.00
2019-03-27T07:06:12.101Z,28.00
2019-03-27T07:08:43.023Z,25.23
2019-03-27T07:11:14.086Z,36.53
2019-03-27T07:13:45.187Z,28.77
2019-03-27T07:16:16.169Z,30.63
2019-03-27T07:18:47.095Z,36.30
2019-03-27T07:21:18.036Z,29.83
2019-03-27T07:23:49.050Z,23.90
2019-03-27T07:26:21.992Z,28.13
2019-03-27T07:28:53.614Z,23.67
2019-03-27T07:31:28.017Z,26.80
2019-03-27T07:33:58.947Z,21.30
2019-03-27T07:36:29.993Z,24.07
2019-03-27T07:39:10.466Z,21.20
2019-03-27T07:41:34.114Z,20.30
2019-03-27T07:44:08.151Z,28.40
2019-03-27T07:46:39.397Z,26.87
2019-03-27T07:49:10.611Z,18.53
2019-03-27T07:51:41.719Z,19.27
2019-03-27T07:54:12.681Z,22.30
2019-03-27T07:56:45.448Z,18.97
2019-03-27T07:59:16.451Z,16.90
2019-03-27T08:01:47.604Z,16.40
2019-03-27T08:04:18.424Z,20.17
2019-03-27T08:06:49.427Z,22.17
2019-03-27T08:09:23.002Z,25.17
2019-03-27T08:11:53.069Z,26.30
2019-03-27T08:14:35.353Z,18.10
2019-03-27T08:17:07.957Z,22.03
2019-03-27T08:19:39.177Z,25.73
2019-03-27T08:22:10.298Z,21.73
2019-03-27T08:24:42.758Z,22.27
2019-03-27T08:27:14.642Z,24.57
2019-03-27T08:29:49.429Z,19.03
2019-03-27T08:32:25.819Z,21.30
2019-03-27T08:34:57.883Z,22.90
2019-03-27T08:37:28.980Z,25.43
2019-03-27T08:40:00.108Z,21.57
2019-03-27T08:42:31.065Z,25.13
2019-03-27T08:45:03.005Z,21.07
2019-03-27T08:47:34.024Z,22.77
2019-03-27T08:50:09.098Z,27.13
2019-03-27T08:52:42.963Z,21.63
2019-03-27T08:55:14.351Z,22.53
2019-03-27T08:57:45.261Z,22.27
2019-03-27T09:00:21.183Z,17.43
2019-03-27T09:02:50.683Z,22.77
2019-03-27T09:05:23.164Z,27.63
2019-03-27T09:07:54.097Z,27.50
2019-03-27T09:10:25.178Z,21.47
2019-03-27T09:12:56.843Z,22.90
2019-03-27T09:15:27.781Z,20.03
2019-03-27T09:18:00.275Z,24.10
2019-03-27T09:20:31.147Z,20.40
2019-03-27T09:23:03.592Z,19.23
2019-03-27T09:25:39.293Z,25.40
2019-03-27T09:28:10.311Z,20.63
2019-03-27T09:30:41.547Z,19.70
2019-03-27T09:33:16.943Z,22.50
2019-03-27T09:35:48.169Z,22.33
2019-03-27T09:38:21.356Z,27.20
2019-03-27T09:40:52.494Z,17.87
2019-03-27T09:43:23.569Z,17.57
2019-03-27T09:45:56.129Z,18.33
2019-03-27T09:48:28.409Z,21.57
2019-03-27T09:50:59.607Z,18.73
2019-03-27T09:53:30.829Z,19.93
2019-03-27T09:56:01.962Z,25.87
2019-03-27T09:58:33.107Z,19.43
2019-03-27T10:01:08.096Z,19.67
2019-03-27T10:03:39.283Z,24.83
2019-03-27T10:06:10.444Z,17.97
2019-03-27T10:08:41.699Z,18.93
2019-03-27T10:11:25.831Z,23.37
2019-03-27T10:13:58.708Z,23.67
2019-03-27T10:16:31.538Z,22.83
2019-03-27T10:19:05.587Z,24.13
2019-03-27T10:21:36.744Z,19.90
2019-03-27T10:24:07.924Z,20.53
2019-03-27T10:26:42.942Z,19.77
2019-03-27T10:29:17.329Z,18.00
2019-03-27T10:31:48.504Z,23.37
2019-03-27T10:34:22.803Z,16.37
2019-03-27T10:36:53.884Z,19.00
2019-03-27T10:39:25.133Z,19.63
2019-03-27T10:41:56.372Z,20.10
2019-03-27T10:44:29.737Z,23.27
2019-03-27T10:47:03.226Z,24.97
2019-03-27T10:49:34.635Z,18.60
2019-03-27T10:52:05.830Z,17.47
2019-03-27T10:54:36.998Z,17.03
2019-03-27T10:57:09.880Z,20.90
2019-03-27T10:59:40.882Z,19.07
2019-03-27T11:02:11.817Z,18.00
2019-03-27T11:04:43.069Z,19.23
2019-03-27T11:07:14.106Z,17.17
2019-03-27T11:09:45.085Z,18.93
2019-03-27T11:12:16.002Z,20.73
2019-03-27T11:14:46.901Z,20.83
2019-03-27T11:17:17.864Z,18.73
2019-03-27T11:19:51.954Z,15.17
2019-03-27T11:22:22.853Z,14.17
2019-03-27T11:24:53.719Z,23.37
2019-03-27T11:27:24.741Z,20.50
2019-03-27T11:29:55.666Z,15.47
2019-03-27T11:32:26.698Z,20.30
2019-03-27T11:34:59.549Z,21.93
2019-03-27T11:37:31.712Z,21.77
2019-03-27T11:40:04.982Z,21.03
2019-03-27T11:42:35.923Z,17.77
2019-03-27T11:45:07.374Z,17.00
2019-03-27T11:47:45.971Z,19.83
2019-03-27T11:50:16.980Z,21.10
2019-03-27T11:52:48.094Z,16.20
2019-03-27T11:55:19.079Z,19.27
2019-03-27T11:57:52.812Z,20.47
2019-03-27T12:00:23.924Z,19.30
2019-03-27T12:02:54.891Z,16.90
2019-03-27T12:05:25.950Z,18.67
2019-03-27T12:07:57.098Z,24.40
2019-03-27T12:10:28.109Z,22.57
2019-03-27T12:12:59.089Z,19.50
2019-03-27T12:15:40.910Z,18.27
2019-03-27T12:18:14.047Z,23.17
2019-03-27T12:20:57.772Z,15.67
2019-03-27T12:23:21.783Z,19.23
2019-03-27T12:25:55.232Z,19.00
2019-03-27T12:28:25.406Z,17.10
2019-03-27T12:30:56.509Z,17.20
2019-03-27T12:33:30.646Z,16.97
2019-03-27T12:36:01.795Z,19.40
2019-03-27T12:38:33.376Z,18.07
2019-03-27T12:41:04.377Z,16.67
2019-03-27T12:43:35.417Z,20.37
2019-03-27T12:46:06.348Z,18.40
2019-03-27T12:48:37.310Z,17.70
2019-03-27T12:51:12.962Z,21.57
2019-03-27T12:53:41.119Z,23.73
2019-03-27T12:56:12.125Z,18.43
2019-03-27T12:58:43.127Z,22.43
2019-03-27T13:01:14.252Z,23.70
2019-03-27T13:03:47.041Z,19.77
2019-03-27T13:06:17.970Z,21.87
2019-03-27T13:08:49.569Z,21.40
2019-03-27T13:11:20.688Z,16.37
2019-03-27T13:13:52.668Z,19.37
2019-03-27T13:16:23.858Z,19.93
2019-03-27T13:18:55.181Z,19.60
2019-03-27T13:21:27.026Z,21.63
2019-03-27T13:23:58.519Z,20.90
2019-03-27T13:26:30.966Z,18.23
2019-03-27T13:29:02.517Z,19.43
2019-03-27T13:31:33.673Z,21.00
2019-03-27T13:34:08.190Z,17.03
2019-03-27T13:36:41.557Z,18.47
2019-03-27T13:39:12.985Z,17.30
2019-03-27T13:41:44.493Z,21.73
2019-03-27T13:44:20.139Z,20.07
2019-03-27T13:46:51.413Z,14.90
2019-03-27T13:49:22.738Z,16.50
2019-03-27T13:51:53.781Z,19.67
2019-03-27T13:54:25.730Z,21.13
2019-03-27T13:56:56.772Z,22.70
2019-03-27T13:59:30.831Z,18.37
2019-03-27T14:02:01.841Z,18.57
2019-03-27T14:04:34.438Z,19.57
2019-03-27T14:07:05.638Z,20.83
2019-03-27T14:09:37.664Z,17.77
2019-03-27T14:12:10.670Z,22.97
2019-03-27T14:14:50.077Z,19.50
2019-03-27T14:17:15.782Z,23.20
2019-03-27T14:19:46.864Z,20.73
2019-03-27T14:22:18.411Z,19.90
2019-03-27T14:24:49.596Z,21.13
2019-03-27T14:27:20.838Z,23.67
2019-03-27T14:29:52.076Z,25.97
2019-03-27T14:32:24.600Z,18.47
2019-03-27T14:34:55.717Z,15.77
2019-03-27T14:37:26.639Z,22.37
2019-03-27T14:39:57.535Z,19.90
2019-03-27T14:42:28.513Z,18.57
2019-03-27T14:45:00.384Z,25.03
2019-03-27T14:47:31.361Z,18.77
2019-03-27T14:50:02.460Z,19.70
2019-03-27T14:52:34.293Z,21.00
2019-03-27T14:55:05.612Z,16.90
2019-03-27T14:57:36.480Z,21.17
2019-03-27T15:00:09.596Z,17.47
2019-03-27T15:02:40.632Z,20.97
2019-03-27T15:05:11.780Z,16.53
2019-03-27T15:07:42.681Z,21.53
2019-03-27T15:10:13.725Z,19.57
2019-03-27T15:12:44.577Z,17.60
2019-03-27T15:15:16.019Z,19.73
2019-03-27T15:17:46.895Z,19.20
2019-03-27T15:20:18.763Z,17.80
2019-03-27T15:22:51.264Z,18.97
2019-03-27T15:25:25.004Z,18.27
2019-03-27T15:27:55.876Z,19.80
2019-03-27T15:30:26.809Z,16.07
2019-03-27T15:33:03.577Z,19.20
2019-03-27T15:35:38.314Z,19.33
2019-03-27T15:38:09.190Z,14.90
2019-03-27T15:40:41.636Z,17.70
2019-03-27T15:43:12.461Z,16.47
2019-03-27T15:45:43.357Z,16.03
2019-03-27T15:48:14.215Z,14.17
2019-03-27T15:50:55.659Z,14.13
2019-03-27T15:53:19.251Z,13.03
2019-03-27T15:55:51.661Z,15.67
2019-03-27T15:58:22.547Z,17.37
2019-03-27T16:00:53.494Z,19.03
2019-03-27T16:03:24.387Z,17.07
2019-03-27T16:05:57.120Z,14.93
2019-03-27T16:08:28.069Z,19.70
2019-03-27T16:10:58.968Z,24.27
2019-03-27T16:13:30.027Z,24.07
2019-03-27T16:16:01.020Z,19.03
2019-03-27T16:18:31.963Z,22.57
2019-03-27T16:21:02.801Z,25.97
2019-03-27T16:23:36.157Z,21.67
2019-03-27T16:26:07.287Z,22.57
2019-03-27T16:28:52.848Z,23.03
2019-03-27T16:31:14.102Z,23.00
2019-03-27T16:33:47.166Z,21.30
2019-03-27T16:36:21.220Z,24.53
2019-03-27T16:38:54.661Z,23.73
2019-03-27T16:41:26.923Z,23.20
2019-03-27T16:43:58.604Z,31.13
2019-03-27T16:46:32.857Z,26.67
2019-03-27T16:49:03.932Z,25.00
2019-03-27T16:51:35.449Z,25.40
2019-03-27T16:54:06.593Z,23.73
2019-03-27T16:56:37.723Z,27.00
2019-03-27T16:59:08.695Z,25.23
2019-03-27T17:01:39.722Z,25.20
2019-03-27T17:04:10.768Z,30.23
2019-03-27T17:06:41.930Z,30.33
2019-03-27T17:09:17.025Z,27.63
2019-03-27T17:11:49.579Z,27.80
2019-03-27T17:14:20.495Z,32.50
2019-03-27T17:16:51.370Z,30.77
2019-03-27T17:19:22.243Z,27.23
2019-03-27T17:21:53.239Z,26.93
2019-03-27T17:24:24.065Z,31.00
2019-03-27T17:26:55.536Z,27.33
2019-03-27T17:29:26.388Z,25.00
2019-03-27T17:31:57.248Z,28.13
2019-03-27T17:34:28.062Z,26.60
2019-03-27T17:36:58.958Z,28.27
2019-03-27T17:39:29.866Z,28.07
2019-03-27T17:42:01.014Z,32.07
2019-03-27T17:44:31.954Z,37.30
2019-03-27T17:47:02.881Z,28.80
2019-03-27T17:49:33.769Z,29.47
2019-03-27T17:52:17.192Z,25.93
2019-03-27T17:54:40.617Z,27.43
2019-03-27T17:57:13.214Z,29.13
2019-03-27T17:59:45.144Z,30.30
2019-03-27T18:02:17.248Z,28.20
2019-03-27T18:04:48.174Z,26.47
2019-03-27T18:07:20.980Z,33.67
2019-03-27T18:09:52.281Z,27.73
2019-03-27T18:12:23.287Z,28.43
2019-03-27T18:14:54.304Z,22.80
2019-03-27T18:17:26.256Z,34.50
2019-03-27T18:19:57.178Z,30.97
2019-03-27T18:22:28.071Z,31.27
2019-03-27T18:24:59.045Z,26.80
2019-03-27T18:27:29.952Z,33.77
2019-03-27T18:30:00.840Z,38.93
2019-03-27T18:32:31.989Z,32.87
2019-03-27T18:35:02.982Z,34.20
2019-03-27T18:37:34.021Z,33.43
2019-03-27T18:40:05.719Z,29.43
2019-03-27T18:42:36.921Z,36.03
2019-03-27T18:45:08.491Z,34.07
2019-03-27T18:47:39.926Z,31.00
2019-03-27T18:50:14.063Z,39.30
2019-03-27T18:52:44.935Z,30.27
2019-03-27T18:55:25.804Z,32.80
2019-03-27T18:57:59.296Z,33.70
2019-03-27T19:00:22.309Z,35.03
2019-03-27T19:02:53.355Z,31.60
2019-03-27T19:05:24.305Z,39.43
2019-03-27T19:07:56.768Z,33.23
2019-03-27T19:10:27.672Z,33.43
2019-03-27T19:13:02.406Z,34.90
2019-03-27T19:15:35.654Z,31.67
2019-03-27T19:18:06.717Z,40.43
2019-03-27T19:20:38.558Z,32.57
2019-03-27T19:23:09.586Z,39.93
2019-03-27T19:25:40.523Z,38.93
2019-03-27T19:28:11.648Z,35.13
2019-03-27T19:30:42.603Z,35.50
2019-03-27T19:33:13.612Z,41.73
2019-03-27T19:35:45.956Z,34.43
2019-03-27T19:38:17.010Z,45.13
2019-03-27T19:40:48.984Z,43.00
2019-03-27T19:43:19.918Z,36.37
2019-03-27T19:45:51.071Z,32.40
2019-03-27T19:48:21.997Z,47.27
2019-03-27T19:50:52.870Z,40.20
2019-03-27T19:53:23.919Z,47.87
2019-03-27T19:55:54.972Z,38.13
2019-03-27T19:58:26.250Z,39.33
2019-03-27T20:00:57.218Z,95.67
2019-03-27T20:03:28.270Z,49.27
2019-03-27T20:05:59.289Z,35.83
2019-03-27T20:08:30.435Z,35.33
2019-03-27T20:11:01.402Z,33.60
2019-03-27T20:13:32.314Z,35.77
2019-03-27T20:16:03.334Z,35.43
2019-03-27T20:18:34.376Z,35.03
2019-03-27T20:21:05.313Z,32.37
2019-03-27T20:23:37.424Z,36.80
2019-03-27T20:26:08.418Z,36.50
2019-03-27T20:28:39.546Z,30.23
2019-03-27T20:31:11.617Z,35.70
2019-03-27T20:33:42.668Z,36.40
2019-03-27T20:36:16.598Z,36.33
2019-03-27T20:38:47.532Z,40.67
2019-03-27T20:41:20.283Z,42.27
2019-03-27T20:43:55.486Z,33.00
2019-03-27T20:46:29.144Z,43.87
2019-03-27T20:48:58.935Z,36.07
2019-03-27T20:51:30.089Z,35.00
2019-03-27T20:54:01.597Z,42.43
2019-03-27T20:56:32.704Z,35.63
2019-03-27T20:59:03.573Z,34.83
2019-03-27T21:01:34.601Z,36.03
2019-03-27T21:04:07.000Z,35.13
2019-03-27T21:06:38.864Z,35.70
2019-03-27T21:09:11.632Z,36.10
2019-03-27T21:11:43.394Z,34.57
2019-03-27T21:14:14.356Z,37.23
2019-03-27T21:16:45.353Z,37.23
2019-03-27T21:19:16.311Z,34.17
2019-03-27T21:21:47.166Z,38.97
2019-03-27T21:24:17.964Z,35.70
2019-03-27T21:26:49.013Z,31.93
2019-03-27T21:29:20.244Z,32.53
2019-03-27T21:31:51.213Z,36.87
2019-03-27T21:34:22.070Z,28.03
2019-03-27T21:36:53.175Z,30.53
2019-03-27T21:39:25.904Z,36.00
2019-03-27T21:41:56.759Z,33.47
2019-03-27T21:44:27.757Z,35.87
2019-03-27T21:47:00.777Z,40.00
2019-03-27T21:49:31.727Z,41.07
2019-03-27T21:52:02.824Z,39.07
2019-03-27T21:54:35.596Z,36.57
2019-03-27T21:57:06.550Z,38.47
2019-03-27T21:59:39.731Z,37.90
2019-03-27T22:02:11.525Z,42.10
2019-03-27T22:04:43.302Z,31.27
2019-03-27T22:07:14.306Z,36.83
2019-03-27T22:09:45.488Z,37.53
2019-03-27T22:12:16.430Z,40.17
2019-03-27T22:14:47.286Z,38.10
2019-03-27T22:17:18.202Z,40.73
2019-03-27T22:19:50.084Z,45.63
2019-03-27T22:22:20.974Z,44.23
2019-03-27T22:24:51.896Z,44.63
2019-03-27T22:27:22.887Z,48.77
2019-03-27T22:29:53.833Z,44.13
2019-03-27T22:32:25.960Z,52.97
2019-03-27T22:34:58.416Z,56.77
2019-03-27T22:37:29.403Z,57.87
2019-03-27T22:40:00.387Z,47.93
2019-03-27T22:42:31.610Z,52.40
2019-03-27T22:45:02.573Z,51.67
2019-03-27T22:47:33.630Z,48.73
2019-03-27T22:50:07.862Z,51.27
2019-03-27T22:52:37.385Z,53.90
2019-03-27T22:55:08.469Z,59.20
2019-03-27T22:57:39.551Z,57.60
2019-03-27T23:00:11.433Z,54.00
2019-03-27T23:02:44.149Z,54.57
2019-03-27T23:05:15.222Z,50.70
2019-03-27T23:07:46.299Z,59.57
2019-03-27T23:10:17.274Z,54.33
2019-03-27T23:12:51.303Z,60.70
2019-03-27T23:15:22.262Z,60.90
2019-03-27T23:17:53.374Z,59.00
2019-03-27T23:20:24.265Z,58.33
2019-03-27T23:22:55.135Z,59.40
2019-03-27T23:25:26.069Z,61.40
2019-03-27T23:27:59.837Z,58.03
2019-03-27T23:30:38.017Z,61.37
2019-03-27T23:33:08.973Z,59.47
2019-03-27T23:35:40.005Z,64.53
2019-03-27T23:38:11.021Z,71.37
2019-03-27T23:40:41.953Z,63.23
2019-03-27T23:43:12.805Z,63.33
2019-03-27T23:45:43.859Z,56.47
2019-03-27T23:48:14.821Z,62.33
2019-03-27T23:50:45.790Z,64.43
2019-03-27T23:53:16.706Z,61.93
2019-03-27T23:55:47.664Z,63.30
2019-03-27T23:58:18.720Z,61.07
